Atkins, Iowa
Current Conditions -  °F | °C
As of 4:52 PM on Wednesday 17 Dec 2014 (Local Time) from KCID Reporting Station
Clear Clear  
Wind Chill: 13°   Ceiling: Unl
Heat Index: 21°   Visibility: 10mi
Dew Point: 15°   Wind: 6mph
Humidity: 78%   Direction: 330°NNW
Pressure: 30.28"   Gusts: NA
Location:  42°N, 91.86°W
Report Text: KCID 172252Z 33005KT 10SM CLR M06/M09 A3028 RMK AO2 SLP267 T10611094
Loading
Personal Weather Stations






























Interactive Weather Map New forecast layout! Learn more

10-Day Weather Forecast

Advertisements
Track Severe Weather on mobile